Time;durP1;ratioP1;P1;durP2;ratioP2;P2;SDS_P1;SDS_P2;PMS_P1;PMS_P2;Temp;Humidity;BMP_temperature;BMP_pressure;BME280_temperature;BME280_humidity;BME280_pressure;Samples;Min_cycle;Max_cycle;Signal;HPM_P1;HPM_P2
2024/02/20 00:00:13;;;;;;;6.20;3.07;;;16.30;1.00;;;;;;2611692;54;20153;-58
2024/02/20 00:02:42;;;;;;;4.73;2.40;;;16.20;1.00;;;;;;2611945;39;20751;-58
2024/02/20 00:05:08;;;;;;;3.30;2.43;;;16.30;1.00;;;;;;2612177;54;20432;-58
2024/02/20 00:07:37;;;;;;;3.40;3.07;;;16.30;1.00;;;;;;2612117;54;20399;-59
2024/02/20 00:10:08;;;;;;;3.07;2.57;;;16.30;1.00;;;;;;2611936;54;20770;-59
2024/02/20 00:12:37;;;;;;;5.33;2.67;;;16.20;1.00;;;;;;2612363;54;20977;-59
2024/02/20 00:15:05;;;;;;;3.77;2.50;;;16.20;1.00;;;;;;2612195;54;20981;-64
2024/02/20 00:17:30;;;;;;;5.13;2.83;;;16.20;1.00;;;;;;2611994;54;20400;-63
2024/02/20 00:19:56;;;;;;;3.50;2.70;;;16.30;1.00;;;;;;2611717;54;21067;-62
2024/02/20 00:22:22;;;;;;;5.17;2.77;;;16.30;1.00;;;;;;2611590;54;20292;-64
2024/02/20 00:24:47;;;;;;;5.07;2.87;;;16.30;1.00;;;;;;2612328;46;20369;-61
2024/02/20 00:27:13;;;;;;;3.47;3.17;;;16.30;1.00;;;;;;2612194;54;20159;-59
2024/02/20 00:29:39;;;;;;;3.13;2.40;;;16.30;1.00;;;;;;2612230;54;20423;-60
2024/02/20 00:32:05;;;;;;;3.30;2.70;;;16.20;1.00;;;;;;2612324;54;20147;-61
2024/02/20 00:34:30;;;;;;;5.40;2.77;;;16.20;1.00;;;;;;2612095;39;20526;-61
2024/02/20 00:36:56;;;;;;;3.13;2.60;;;16.20;1.00;;;;;;2611004;54;20454;-59
2024/02/20 00:39:21;;;;;;;3.00;2.43;;;16.30;1.00;;;;;;2611855;54;20206;-60
2024/02/20 00:41:47;;;;;;;3.90;3.07;;;16.20;1.00;;;;;;2612054;54;20168;-60
2024/02/20 00:44:13;;;;;;;6.47;3.43;;;16.20;1.00;;;;;;2612186;54;20163;-73
2024/02/20 00:46:39;;;;;;;4.73;3.60;;;16.20;1.00;;;;;;2612444;54;20156;-74
2024/02/20 00:49:05;;;;;;;3.20;2.40;;;16.20;1.00;;;;;;2612582;51;20451;-74
2024/02/20 00:51:30;;;;;;;5.47;2.57;;;16.20;1.00;;;;;;2612676;39;20929;-73
2024/02/20 00:53:56;;;;;;;3.30;2.60;;;16.30;1.00;;;;;;2612659;54;20165;-74
2024/02/20 00:56:21;;;;;;;4.93;3.17;;;16.30;1.00;;;;;;2612162;54;20164;-73
2024/02/20 00:58:50;;;;;;;3.67;2.63;;;16.30;1.00;;;;;;2611865;47;20191;-74
2024/02/20 01:01:17;;;;;;;5.40;3.07;;;16.30;1.00;;;;;;2612050;54;20226;-74
2024/02/20 01:03:43;;;;;;;4.37;2.70;;;16.20;1.00;;;;;;2611703;54;20490;-74
2024/02/20 01:06:10;;;;;;;5.47;3.07;;;16.20;1.00;;;;;;2611912;54;20455;-73
2024/02/20 01:08:36;;;;;;;3.63;2.90;;;16.20;1.00;;;;;;2612276;54;21759;-74
2024/02/20 01:11:03;;;;;;;3.93;2.50;;;16.20;1.00;;;;;;2612383;54;20971;-73
2024/02/20 01:13:29;;;;;;;3.43;3.00;;;16.30;1.00;;;;;;2612969;54;20415;-73
2024/02/20 01:15:55;;;;;;;2.37;2.17;;;16.20;1.00;;;;;;2613584;54;20383;-73
2024/02/20 01:18:21;;;;;;;3.13;2.57;;;16.30;1.00;;;;;;2612294;54;20466;-73
2024/02/20 01:20:47;;;;;;;3.50;2.73;;;16.20;1.00;;;;;;2613322;39;20769;-73
2024/02/20 01:23:13;;;;;;;5.53;2.70;;;16.20;1.00;;;;;;2612866;54;20166;-73
2024/02/20 01:25:38;;;;;;;5.40;3.30;;;16.20;1.00;;;;;;2612431;54;20175;-61
2024/02/20 01:28:04;;;;;;;4.00;2.83;;;16.20;1.00;;;;;;2612283;54;20408;-61
2024/02/20 01:30:30;;;;;;;5.83;3.13;;;16.20;1.00;;;;;;2611084;54;20831;-61
2024/02/20 01:32:57;;;;;;;4.27;2.63;;;16.20;1.00;;;;;;2611079;47;20158;-61
2024/02/20 01:35:23;;;;;;;5.30;3.13;;;16.30;1.00;;;;;;2612352;39;20659;-58
2024/02/20 01:37:49;;;;;;;3.70;2.80;;;16.20;1.00;;;;;;2611596;54;20420;-59
2024/02/20 01:40:16;;;;;;;4.33;2.90;;;16.30;1.00;;;;;;2611717;54;20414;-58
2024/02/20 01:42:43;;;;;;;3.37;3.07;;;16.20;1.00;;;;;;2611353;54;20462;-58
2024/02/20 01:45:09;;;;;;;5.10;3.10;;;16.20;1.00;;;;;;2611718;54;20424;-59
2024/02/20 01:47:39;;;;;;;2.93;2.63;;;16.30;1.00;;;;;;2611415;54;20573;-58
2024/02/20 01:50:06;;;;;;;3.60;2.30;;;16.20;1.00;;;;;;2611937;54;20405;-59
2024/02/20 01:52:32;;;;;;;4.57;2.90;;;16.20;1.00;;;;;;2611092;47;20898;-59
2024/02/20 01:55:01;;;;;;;3.30;2.97;;;16.30;1.00;;;;;;2612018;54;20439;-74
2024/02/20 01:57:26;;;;;;;3.30;2.90;;;16.20;1.00;;;;;;2612830;47;20277;-73
2024/02/20 01:59:53;;;;;;;4.77;2.77;;;16.20;1.00;;;;;;2612971;54;20397;-73
2024/02/20 02:02:20;;;;;;;4.73;2.83;;;16.20;1.00;;;;;;2613243;54;20138;-73
2024/02/20 02:04:46;;;;;;;5.27;3.20;;;16.20;1.00;;;;;;2612656;54;20406;-74
2024/02/20 02:07:11;;;;;;;4.30;2.93;;;16.20;1.00;;;;;;2613051;54;20448;-73
2024/02/20 02:09:37;;;;;;;4.43;2.50;;;16.20;1.00;;;;;;2612980;54;20959;-74
2024/02/20 02:12:04;;;;;;;3.47;2.77;;;16.20;1.00;;;;;;2613218;54;20167;-74
2024/02/20 02:14:29;;;;;;;3.17;2.50;;;16.20;1.00;;;;;;2614121;39;20630;-73
2024/02/20 02:16:55;;;;;;;6.53;3.40;;;16.20;1.00;;;;;;2611796;54;20450;-74
2024/02/20 02:19:21;;;;;;;4.70;3.53;;;16.30;1.00;;;;;;2612836;54;20167;-74
2024/02/20 02:21:47;;;;;;;3.10;2.80;;;16.20;1.00;;;;;;2612695;54;20186;-74
2024/02/20 02:24:13;;;;;;;3.90;2.53;;;16.20;1.00;;;;;;2613146;54;20159;-74
2024/02/20 02:26:38;;;;;;;5.17;2.80;;;16.30;1.00;;;;;;2613440;47;20964;-73
2024/02/20 02:29:04;;;;;;;3.87;3.30;;;16.30;1.00;;;;;;2613383;54;20397;-74
2024/02/20 02:31:30;;;;;;;5.57;2.80;;;16.20;1.00;;;;;;2612750;54;20414;-73
2024/02/20 02:33:59;;;;;;;3.80;3.03;;;16.20;1.00;;;;;;2612498;54;20423;-74
2024/02/20 02:36:25;;;;;;;3.10;2.80;;;16.20;1.00;;;;;;2613178;47;20172;-74
2024/02/20 02:38:52;;;;;;;2.40;2.20;;;16.20;1.00;;;;;;2612874;47;20477;-74
2024/02/20 02:41:18;;;;;;;5.77;3.50;;;16.20;1.00;;;;;;2613004;54;20159;-73
2024/02/20 02:43:45;;;;;;;3.30;2.53;;;16.30;1.00;;;;;;2611966;54;20428;-73
2024/02/20 02:46:12;;;;;;;4.73;3.10;;;16.30;1.00;;;;;;2612638;54;20416;-58
2024/02/20 02:48:37;;;;;;;4.50;2.53;;;16.20;1.00;;;;;;2613000;47;20546;-59
2024/02/20 02:51:03;;;;;;;6.17;3.07;;;16.20;1.00;;;;;;2613310;39;20766;-59
2024/02/20 02:53:29;;;;;;;2.83;2.57;;;16.20;1.00;;;;;;2612204;54;20166;-59
2024/02/20 02:55:54;;;;;;;5.00;3.50;;;16.30;1.00;;;;;;2611425;47;20171;-58
2024/02/20 02:58:20;;;;;;;4.20;2.80;;;16.20;1.00;;;;;;2611970;54;20154;-59
2024/02/20 03:00:46;;;;;;;7.83;2.93;;;16.20;1.00;;;;;;2612194;39;20604;-59
2024/02/20 03:03:11;;;;;;;5.20;3.07;;;16.20;1.00;;;;;;2611571;54;20174;-58
2024/02/20 03:05:37;;;;;;;6.23;3.37;;;16.20;1.00;;;;;;2612156;54;20160;-65
2024/02/20 03:08:04;;;;;;;4.63;3.00;;;16.20;1.00;;;;;;2611705;54;20732;-66
2024/02/20 03:10:30;;;;;;;4.37;3.10;;;16.20;1.00;;;;;;2612619;54;20403;-65
2024/02/20 03:12:56;;;;;;;7.13;3.00;;;16.20;1.00;;;;;;2612374;54;20424;-65
2024/02/20 03:15:22;;;;;;;4.00;2.93;;;16.20;1.00;;;;;;2612026;54;20458;-65
2024/02/20 03:17:49;;;;;;;5.60;3.00;;;16.20;1.00;;;;;;2612554;54;20152;-66
2024/02/20 03:20:15;;;;;;;5.30;2.83;;;16.20;1.00;;;;;;2612361;54;20735;-66
2024/02/20 03:22:42;;;;;;;7.50;3.60;;;16.20;1.00;;;;;;2612341;47;20431;-66
2024/02/20 03:25:08;;;;;;;5.70;3.17;;;16.20;1.00;;;;;;2611895;54;21058;-65
2024/02/20 03:27:35;;;;;;;4.10;3.00;;;16.20;1.00;;;;;;2612029;54;20409;-66
2024/02/20 03:30:01;;;;;;;3.63;3.07;;;16.20;1.00;;;;;;2612571;54;20974;-66
2024/02/20 03:32:27;;;;;;;5.30;3.40;;;16.20;1.00;;;;;;2611863;54;20431;-65
2024/02/20 03:34:53;;;;;;;4.53;3.20;;;16.20;1.00;;;;;;2612884;54;20408;-65
2024/02/20 03:37:18;;;;;;;4.60;3.67;;;16.20;1.00;;;;;;2612365;54;21548;-66
2024/02/20 03:39:44;;;;;;;5.63;3.23;;;16.20;1.00;;;;;;2612532;47;20166;-65
2024/02/20 03:42:09;;;;;;;4.57;3.20;;;16.20;1.00;;;;;;2611928;54;20158;-66
2024/02/20 03:44:39;;;;;;;4.83;3.27;;;16.20;1.00;;;;;;2612919;54;20186;-64
2024/02/20 03:47:05;;;;;;;4.57;2.87;;;16.20;1.00;;;;;;2611758;39;20764;-63
2024/02/20 03:49:31;;;;;;;3.87;3.10;;;16.20;1.00;;;;;;2612899;39;20938;-64
2024/02/20 03:51:57;;;;;;;5.17;3.10;;;16.20;1.00;;;;;;2611879;54;20451;-63
2024/02/20 03:54:22;;;;;;;6.93;4.13;;;16.20;1.00;;;;;;2611653;54;20142;-58
2024/02/20 03:56:48;;;;;;;4.10;3.10;;;16.20;1.00;;;;;;2612571;47;20227;-58
2024/02/20 03:59:13;;;;;;;3.90;3.00;;;16.20;1.00;;;;;;2611511;54;20154;-59
2024/02/20 04:01:39;;;;;;;4.50;3.07;;;16.20;1.00;;;;;;2612037;54;20885;-59
2024/02/20 04:04:05;;;;;;;3.27;2.77;;;16.20;1.00;;;;;;2611737;54;20185;-59
2024/02/20 04:06:32;;;;;;;4.80;3.60;;;16.20;1.00;;;;;;2611754;54;20540;-57
2024/02/20 04:09:03;;;;;;;2.80;2.50;;;16.20;1.00;;;;;;2613055;39;20633;-59
2024/02/20 04:11:32;;;;;;;6.90;2.87;;;16.20;1.00;;;;;;2611447;54;20419;-60
2024/02/20 04:13:58;;;;;;;4.87;3.10;;;16.20;1.00;;;;;;2611975;54;21063;-59
2024/02/20 04:16:23;;;;;;;4.43;3.03;;;16.20;1.00;;;;;;2611747;54;20405;-60
2024/02/20 04:18:49;;;;;;;3.63;3.20;;;16.20;1.00;;;;;;2612948;31;20651;-60
2024/02/20 04:21:14;;;;;;;5.97;3.63;;;16.20;1.00;;;;;;2611436;54;20155;-60
2024/02/20 04:23:40;;;;;;;4.43;3.10;;;16.20;1.00;;;;;;2612305;54;20269;-60
2024/02/20 04:26:06;;;;;;;3.30;2.87;;;16.20;1.00;;;;;;2612636;54;20245;-61
2024/02/20 04:28:35;;;;;;;4.80;3.40;;;16.20;1.00;;;;;;2611535;54;20252;-60
2024/02/20 04:31:02;;;;;;;2.70;2.50;;;16.20;1.00;;;;;;2612660;51;20912;-60
2024/02/20 04:33:28;;;;;;;3.70;2.50;;;16.20;1.00;;;;;;2611767;39;20784;-61
2024/02/20 04:35:53;;;;;;;4.50;2.70;;;16.20;1.00;;;;;;2611551;39;20796;-61
2024/02/20 04:38:19;;;;;;;5.00;2.73;;;16.20;1.00;;;;;;2611651;54;20404;-60
2024/02/20 04:40:45;;;;;;;3.93;2.23;;;16.20;1.00;;;;;;2611917;54;20224;-60
2024/02/20 04:43:10;;;;;;;6.00;3.40;;;16.20;1.00;;;;;;2612184;47;20177;-60
2024/02/20 04:45:36;;;;;;;4.53;2.70;;;16.20;1.00;;;;;;2611670;54;20760;-60
2024/02/20 04:48:02;;;;;;;4.37;3.00;;;16.20;1.00;;;;;;2612451;54;20214;-60
2024/02/20 04:50:27;;;;;;;3.43;2.80;;;16.20;1.00;;;;;;2611680;54;20151;-61
2024/02/20 04:52:53;;;;;;;4.27;3.17;;;16.20;1.00;;;;;;2611301;47;20225;-60
2024/02/20 04:55:19;;;;;;;4.97;3.30;;;16.20;1.00;;;;;;2611677;54;20257;-58
2024/02/20 04:57:44;;;;;;;4.13;3.10;;;16.20;1.00;;;;;;2611915;54;20760;-59
2024/02/20 05:00:10;;;;;;;4.47;3.20;;;16.20;1.00;;;;;;2612679;39;20949;-59
2024/02/20 05:02:41;;;;;;;5.00;3.03;;;16.20;1.00;;;;;;2610975;47;20175;-60
2024/02/20 05:05:07;;;;;;;4.10;3.03;;;16.20;1.00;;;;;;2611540;54;20507;-59
2024/02/20 05:07:33;;;;;;;4.83;2.83;;;16.20;1.00;;;;;;2611951;39;20836;-60
2024/02/20 05:09:59;;;;;;;4.50;2.80;;;16.20;1.00;;;;;;2611178;54;20440;-60
2024/02/20 05:12:25;;;;;;;3.30;2.70;;;16.20;1.00;;;;;;2611613;54;20263;-61
2024/02/20 05:14:50;;;;;;;3.60;2.50;;;16.20;1.00;;;;;;2611706;54;20408;-60
2024/02/20 05:17:16;;;;;;;4.70;3.10;;;16.20;1.00;;;;;;2611808;54;20236;-61
2024/02/20 05:19:42;;;;;;;3.90;2.63;;;16.20;1.00;;;;;;2611691;54;20159;-60
2024/02/20 05:22:07;;;;;;;5.57;2.83;;;16.10;1.00;;;;;;2611789;54;20143;-61
2024/02/20 05:24:36;;;;;;;4.70;2.50;;;16.20;1.00;;;;;;2611891;54;20680;-64
2024/02/20 05:27:05;;;;;;;3.60;3.30;;;16.20;1.00;;;;;;2612298;54;20162;-64
2024/02/20 05:29:30;;;;;;;3.20;2.70;;;16.20;1.00;;;;;;2610884;54;20457;-63
2024/02/20 05:31:57;;;;;;;5.17;2.97;;;16.20;1.00;;;;;;2612354;47;20431;-63
2024/02/20 05:34:23;;;;;;;4.80;2.60;;;16.20;1.00;;;;;;2612780;54;20144;-64
2024/02/20 05:36:48;;;;;;;3.40;2.57;;;16.20;1.00;;;;;;2612277;54;20432;-64
2024/02/20 05:39:14;;;;;;;6.43;3.67;;;16.10;1.00;;;;;;2613383;54;20195;-65
2024/02/20 05:41:39;;;;;;;3.93;2.80;;;16.10;1.00;;;;;;2612649;54;20992;-64
2024/02/20 05:44:05;;;;;;;4.40;3.30;;;16.20;1.00;;;;;;2612709;54;20151;-64
2024/02/20 05:46:32;;;;;;;3.40;2.53;;;16.20;1.00;;;;;;2612399;54;20265;-64
2024/02/20 05:48:58;;;;;;;4.40;2.50;;;16.20;1.00;;;;;;2612414;54;20198;-64
2024/02/20 05:51:27;;;;;;;5.60;3.40;;;16.20;1.00;;;;;;2612335;47;20474;-64
2024/02/20 05:53:53;;;;;;;3.70;2.87;;;16.20;1.00;;;;;;2612843;54;20406;-64
2024/02/20 05:56:19;;;;;;;4.30;2.70;;;16.20;1.00;;;;;;2612224;54;20956;-64
2024/02/20 05:58:46;;;;;;;5.50;3.70;;;16.20;1.00;;;;;;2612459;54;20441;-64
2024/02/20 06:01:13;;;;;;;4.63;3.20;;;16.20;1.00;;;;;;2611639;54;20437;-64
2024/02/20 06:03:40;;;;;;;9.67;3.67;;;16.20;1.00;;;;;;2612623;47;20436;-64
2024/02/20 06:06:07;;;;;;;3.30;2.33;;;16.20;1.00;;;;;;2612398;54;20426;-59
2024/02/20 06:08:33;;;;;;;6.50;2.23;;;16.10;1.00;;;;;;2612872;47;20524;-59
2024/02/20 06:10:59;;;;;;;4.23;2.93;;;16.10;1.00;;;;;;2612789;39;21041;-60
2024/02/20 06:13:24;;;;;;;4.10;2.70;;;16.10;1.00;;;;;;2611845;47;20428;-58
2024/02/20 06:15:50;;;;;;;4.00;2.57;;;16.20;1.00;;;;;;2612903;54;20159;-65
2024/02/20 06:18:16;;;;;;;4.80;2.80;;;16.10;1.00;;;;;;2612614;54;20181;-65
2024/02/20 06:20:45;;;;;;;2.90;2.60;;;16.10;1.00;;;;;;2613114;54;20201;-66
2024/02/20 06:23:13;;;;;;;3.13;2.40;;;16.10;1.00;;;;;;2612441;54;20155;-65
2024/02/20 06:25:43;;;;;;;3.77;2.70;;;16.20;1.00;;;;;;2612400;54;20518;-65
2024/02/20 06:28:09;;;;;;;5.53;2.53;;;16.10;1.00;;;;;;2612368;54;20409;-64
2024/02/20 06:30:35;;;;;;;3.63;2.40;;;16.10;1.00;;;;;;2612242;54;20381;-66
2024/02/20 06:33:02;;;;;;;3.70;2.83;;;16.20;1.00;;;;;;2612380;47;20989;-66
2024/02/20 06:35:27;;;;;;;3.87;2.13;;;16.10;1.00;;;;;;2612202;54;20166;-65
2024/02/20 06:37:53;;;;;;;2.33;2.07;;;16.10;1.00;;;;;;2612425;54;20395;-65
2024/02/20 06:40:19;;;;;;;3.03;2.00;;;16.10;1.00;;;;;;2612421;39;20765;-63
2024/02/20 06:42:44;;;;;;;2.83;2.40;;;16.10;1.00;;;;;;2612196;54;20169;-64
2024/02/20 06:45:10;;;;;;;2.50;2.17;;;16.10;1.00;;;;;;2612664;54;20162;-63
2024/02/20 06:47:35;;;;;;;3.20;2.20;;;16.20;1.00;;;;;;2612527;54;20196;-64
2024/02/20 06:50:01;;;;;;;3.37;2.30;;;16.10;1.00;;;;;;2612172;54;20168;-64
2024/02/20 06:52:27;;;;;;;6.73;2.53;;;16.20;1.00;;;;;;2612463;54;20152;-63
2024/02/20 06:54:53;;;;;;;5.50;2.60;;;16.20;1.00;;;;;;2612156;54;20250;-64
2024/02/20 06:57:18;;;;;;;4.63;2.20;;;16.10;1.00;;;;;;2612372;54;20408;-63
2024/02/20 06:59:44;;;;;;;2.57;2.37;;;16.20;1.00;;;;;;2611889;54;20228;-63
2024/02/20 07:02:09;;;;;;;5.73;2.60;;;16.10;1.00;;;;;;2612085;54;20166;-63
2024/02/20 07:04:38;;;;;;;4.20;2.60;;;16.10;1.00;;;;;;2612563;54;20193;-64
2024/02/20 07:07:05;;;;;;;4.30;2.33;;;16.10;1.00;;;;;;2611591;54;20194;-64
2024/02/20 07:09:30;;;;;;;4.63;2.63;;;16.10;1.00;;;;;;2612240;46;20452;-65
2024/02/20 07:11:56;;;;;;;3.70;2.30;;;16.10;1.00;;;;;;2611761;47;20438;-66
2024/02/20 07:14:22;;;;;;;4.03;2.33;;;16.10;1.00;;;;;;2612363;54;20162;-66
2024/02/20 07:16:47;;;;;;;5.37;3.43;;;16.10;1.00;;;;;;2612173;54;20151;-65
2024/02/20 07:19:13;;;;;;;3.63;2.40;;;16.20;1.00;;;;;;2612582;54;20251;-65
2024/02/20 07:21:39;;;;;;;3.83;2.10;;;16.10;1.00;;;;;;2612223;54;20215;-65
2024/02/20 07:24:04;;;;;;;3.87;2.50;;;16.20;1.00;;;;;;2612272;54;20569;-63
2024/02/20 07:26:30;;;;;;;2.87;2.33;;;16.20;1.00;;;;;;2612959;54;20181;-73
2024/02/20 07:28:56;;;;;;;3.03;2.23;;;16.10;1.00;;;;;;2613419;54;20170;-74
2024/02/20 07:31:25;;;;;;;5.00;2.77;;;16.10;1.00;;;;;;2612762;54;20174;-74
2024/02/20 07:33:52;;;;;;;4.90;2.40;;;16.10;1.00;;;;;;2612990;51;20466;-74
2024/02/20 07:36:17;;;;;;;5.90;2.67;;;16.20;1.00;;;;;;2612896;47;20477;-73
2024/02/20 07:38:44;;;;;;;3.33;2.23;;;16.10;1.00;;;;;;2612596;47;20422;-74
2024/02/20 07:41:10;;;;;;;3.77;2.37;;;16.10;1.00;;;;;;2612568;54;20161;-75
2024/02/20 07:43:36;;;;;;;3.57;2.57;;;16.20;1.00;;;;;;2611957;54;20411;-74
2024/02/20 07:46:02;;;;;;;3.63;2.30;;;16.10;1.00;;;;;;2613053;54;20415;-64
2024/02/20 07:48:28;;;;;;;3.00;2.40;;;16.20;1.00;;;;;;2612445;54;20202;-65
2024/02/20 07:50:54;;;;;;;2.73;2.37;;;16.10;1.00;;;;;;2611781;54;20478;-64
2024/02/20 07:53:20;;;;;;;5.77;2.83;;;16.10;1.00;;;;;;2612125;47;20146;-64
2024/02/20 07:55:47;;;;;;;4.20;2.73;;;16.10;1.00;;;;;;2612481;39;20568;-64
2024/02/20 07:58:12;;;;;;;5.50;3.20;;;16.20;1.00;;;;;;2612160;54;20397;-64
2024/02/20 08:00:38;;;;;;;5.43;3.20;;;16.20;1.00;;;;;;2611527;47;20442;-64
2024/02/20 08:03:04;;;;;;;2.40;2.07;;;16.20;1.00;;;;;;2612021;54;20168;-64
2024/02/20 08:05:30;;;;;;;5.77;2.60;;;16.20;1.00;;;;;;2611930;54;20144;-64
2024/02/20 08:07:55;;;;;;;3.10;2.47;;;16.20;1.00;;;;;;2612014;47;20463;-63
2024/02/20 08:10:21;;;;;;;4.40;2.70;;;16.20;1.00;;;;;;2612217;54;20170;-63
2024/02/20 08:12:46;;;;;;;3.83;2.40;;;16.20;1.00;;;;;;2611999;47;20704;-61
2024/02/20 08:15:12;;;;;;;5.43;3.53;;;16.20;1.00;;;;;;2612392;54;20152;-64
2024/02/20 08:17:40;;;;;;;3.63;2.10;;;16.20;1.00;;;;;;2612457;54;20166;-64
2024/02/20 08:20:06;;;;;;;4.13;2.90;;;16.20;1.00;;;;;;2611671;47;20201;-65
2024/02/20 08:22:32;;;;;;;6.83;2.93;;;16.30;1.00;;;;;;2612291;54;20418;-63
2024/02/20 08:24:57;;;;;;;5.77;2.83;;;16.30;1.00;;;;;;2611895;54;20394;-63
2024/02/20 08:27:24;;;;;;;2.70;2.20;;;16.30;1.00;;;;;;2612660;54;20173;-63
2024/02/20 08:29:50;;;;;;;4.40;2.70;;;16.30;1.00;;;;;;2612411;54;20156;-64
2024/02/20 08:32:16;;;;;;;3.90;2.60;;;16.30;1.00;;;;;;2611897;54;20462;-64
2024/02/20 08:34:42;;;;;;;4.83;2.80;;;16.30;1.00;;;;;;2612344;54;20428;-62
2024/02/20 08:37:08;;;;;;;5.60;2.73;;;16.30;1.00;;;;;;2611302;47;20173;-62
2024/02/20 08:39:34;;;;;;;8.13;3.27;;;16.30;1.00;;;;;;2612640;39;20805;-62
2024/02/20 08:41:59;;;;;;;5.23;3.13;;;16.30;1.00;;;;;;2611625;54;20726;-62
2024/02/20 08:44:25;;;;;;;4.30;2.90;;;16.30;1.00;;;;;;2612407;53;20516;-62
2024/02/20 08:46:51;;;;;;;3.53;2.30;;;16.30;1.00;;;;;;2611763;47;20182;-63
2024/02/20 08:49:17;;;;;;;5.53;3.40;;;16.30;1.00;;;;;;2612124;39;20882;-62
2024/02/20 08:51:43;;;;;;;4.80;3.00;;;16.20;1.00;;;;;;2612331;54;20181;-62
2024/02/20 08:54:08;;;;;;;3.90;2.50;;;16.30;1.00;;;;;;2611946;54;20400;-65
2024/02/20 08:56:35;;;;;;;4.17;2.87;;;16.20;1.00;;;;;;2612072;51;20285;-65
2024/02/20 08:59:00;;;;;;;5.43;3.20;;;16.20;1.00;;;;;;2610830;47;20162;-63
2024/02/20 09:01:26;;;;;;;7.20;3.30;;;16.20;1.00;;;;;;2611036;54;20443;-66
2024/02/20 09:03:55;;;;;;;3.47;2.97;;;16.20;1.00;;;;;;2612381;39;20906;-66
2024/02/20 09:06:21;;;;;;;6.97;3.30;;;16.20;1.00;;;;;;2611867;39;20881;-63
2024/02/20 09:08:46;;;;;;;4.20;2.80;;;16.20;1.00;;;;;;2612636;54;20495;-64
2024/02/20 09:11:12;;;;;;;5.00;3.70;;;16.20;1.00;;;;;;2612617;54;20767;-65
2024/02/20 09:13:39;;;;;;;3.57;2.60;;;16.20;1.00;;;;;;2612941;54;20158;-64
2024/02/20 09:16:04;;;;;;;3.20;2.77;;;16.20;1.00;;;;;;2613301;54;20195;-65
2024/02/20 09:18:37;;;;;;;4.13;2.60;;;16.20;1.00;;;;;;2612477;54;20406;-64
2024/02/20 09:21:04;;;;;;;4.63;3.00;;;16.30;1.00;;;;;;2612858;54;20150;-64
2024/02/20 09:23:32;;;;;;;3.83;3.00;;;16.30;1.00;;;;;;2612710;47;20506;-64
2024/02/20 09:25:58;;;;;;;3.80;2.60;;;16.30;1.00;;;;;;2612612;54;21000;-64
2024/02/20 09:28:23;;;;;;;5.93;3.20;;;16.30;1.00;;;;;;2612563;39;20958;-65
2024/02/20 09:30:49;;;;;;;4.70;3.10;;;16.30;1.00;;;;;;2612982;54;20147;-64
2024/02/20 09:33:18;;;;;;;3.93;3.10;;;16.30;1.00;;;;;;2612336;39;20816;-64
2024/02/20 09:35:43;;;;;;;4.77;2.90;;;16.30;1.00;;;;;;2612692;51;20197;-60
2024/02/20 09:38:10;;;;;;;6.00;3.00;;;16.30;1.00;;;;;;2611675;54;20413;-59
2024/02/20 09:40:36;;;;;;;2.53;2.33;;;16.30;1.00;;;;;;2613306;39;20574;-60
2024/02/20 09:43:04;;;;;;;5.47;3.43;;;16.30;1.00;;;;;;2612720;54;20491;-59
2024/02/20 09:45:32;;;;;;;5.63;4.27;;;16.30;1.00;;;;;;2612437;54;20699;-65
2024/02/20 09:47:58;;;;;;;3.33;2.73;;;16.30;1.00;;;;;;2613155;39;21167;-66
2024/02/20 09:50:25;;;;;;;4.30;3.00;;;16.30;1.00;;;;;;2612598;54;20975;-65
2024/02/20 09:52:53;;;;;;;5.27;3.20;;;16.30;1.00;;;;;;2611751;54;20420;-66
2024/02/20 09:55:20;;;;;;;5.97;3.20;;;16.30;1.00;;;;;;2613675;39;20768;-66
2024/02/20 09:57:49;;;;;;;3.33;2.90;;;16.30;1.00;;;;;;2612467;39;20611;-65
2024/02/20 10:00:16;;;;;;;4.57;3.30;;;16.30;1.00;;;;;;2612426;54;20399;-65
2024/02/20 10:02:44;;;;;;;4.53;3.40;;;16.30;1.00;;;;;;2613080;31;20876;-65
2024/02/20 10:05:15;;;;;;;5.33;3.17;;;16.30;1.00;;;;;;2613190;54;20945;-59
2024/02/20 10:07:42;;;;;;;3.87;3.37;;;16.30;1.00;;;;;;2612647;54;20426;-60
2024/02/20 10:10:09;;;;;;;3.90;3.20;;;16.30;1.00;;;;;;2613232;54;20406;-59
2024/02/20 10:12:36;;;;;;;4.70;3.33;;;16.30;1.00;;;;;;2612626;54;20400;-59
2024/02/20 10:15:09;;;;;;;4.80;3.97;;;16.30;1.00;;;;;;2612269;54;20426;-60
2024/02/20 10:17:35;;;;;;;6.23;3.60;;;16.30;1.00;;;;;;2612645;54;20426;-60
2024/02/20 10:20:12;;;;;;;4.93;3.47;;;16.30;1.00;;;;;;2612585;39;20780;-59
2024/02/20 10:22:40;;;;;;;5.30;4.43;;;16.30;1.00;;;;;;2612179;54;20522;-60
2024/02/20 10:25:13;;;;;;;5.97;4.57;;;16.30;1.00;;;;;;2613408;54;20431;-59
2024/02/20 10:27:40;;;;;;;4.33;3.00;;;16.30;1.00;;;;;;2612286;51;20414;-59
2024/02/20 10:30:09;;;;;;;4.07;3.00;;;16.30;1.00;;;;;;2612815;54;20416;-59
2024/02/20 10:32:38;;;;;;;3.83;2.93;;;16.30;1.00;;;;;;2612437;47;20445;-59
2024/02/20 10:35:06;;;;;;;7.30;3.97;;;16.30;1.00;;;;;;2612528;54;21370;-58
2024/02/20 10:37:32;;;;;;;4.03;3.23;;;16.30;1.00;;;;;;2612672;54;20966;-59
2024/02/20 10:40:12;;;;;;;5.40;3.17;;;16.30;1.00;;;;;;2612536;47;20429;-59
2024/02/20 10:42:39;;;;;;;5.10;3.30;;;16.30;1.00;;;;;;2612826;39;20941;-59
2024/02/20 10:45:07;;;;;;;5.70;3.80;;;16.30;1.00;;;;;;2612430;39;21065;-59
2024/02/20 10:47:43;;;;;;;3.43;3.00;;;16.30;1.00;;;;;;2612329;54;20451;-59
2024/02/20 10:50:09;;;;;;;4.40;3.50;;;16.30;1.00;;;;;;2611921;47;20457;-58
2024/02/20 10:52:38;;;;;;;5.23;3.07;;;16.30;1.00;;;;;;2612000;54;20511;-59
2024/02/20 10:55:06;;;;;;;8.33;3.30;;;16.30;1.00;;;;;;2612860;54;20438;-65
2024/02/20 10:57:34;;;;;;;4.80;3.43;;;16.30;1.00;;;;;;2611854;54;21073;-64
2024/02/20 11:00:11;;;;;;;4.07;3.20;;;16.30;1.00;;;;;;2612367;54;21305;-65
2024/02/20 11:02:44;;;;;;;5.17;3.43;;;16.30;1.00;;;;;;2612371;47;20542;-66
2024/02/20 11:05:12;;;;;;;3.90;3.30;;;16.30;1.00;;;;;;2611877;54;20485;-66
2024/02/20 11:07:38;;;;;;;6.80;3.80;;;16.30;1.00;;;;;;2613148;31;20986;-65
2024/02/20 11:10:18;;;;;;;4.67;3.17;;;16.30;1.00;;;;;;2612585;54;20431;-65
2024/02/20 11:12:44;;;;;;;6.23;3.67;;;16.30;1.00;;;;;;2612157;54;20399;-64
2024/02/20 11:15:20;;;;;;;5.07;3.47;;;16.30;1.00;;;;;;2612331;54;20443;-60
2024/02/20 11:17:47;;;;;;;4.63;3.03;;;16.30;1.00;;;;;;2612611;54;20405;-60
2024/02/20 11:20:23;;;;;;;3.40;2.80;;;16.30;1.00;;;;;;2612278;47;20492;-60
2024/02/20 11:22:49;;;;;;;5.70;3.37;;;16.30;1.00;;;;;;2612191;54;20415;-60
2024/02/20 11:25:25;;;;;;;6.07;3.93;;;16.30;1.00;;;;;;2612303;54;20424;-60
2024/02/20 11:27:51;;;;;;;6.63;3.40;;;16.30;1.00;;;;;;2612437;54;21003;-60
2024/02/20 11:30:18;;;;;;;5.77;3.13;;;16.30;1.00;;;;;;2611958;54;20423;-59
2024/02/20 11:32:45;;;;;;;4.57;2.97;;;16.30;1.00;;;;;;2612053;54;20174;-60
2024/02/20 11:35:31;;;;;;;6.27;4.10;;;16.30;1.00;;;;;;2612199;39;20821;-61
2024/02/20 11:38:04;;;;;;;5.50;3.70;;;16.30;1.00;;;;;;2612462;54;21283;-61
2024/02/20 11:40:33;;;;;;;3.40;2.67;;;16.30;1.00;;;;;;2611976;47;21007;-59
2024/02/20 11:43:06;;;;;;;4.47;4.07;;;16.30;1.00;;;;;;2612947;39;20979;-60
2024/02/20 11:45:34;;;;;;;5.63;3.70;;;16.30;1.00;;;;;;2612248;47;20426;-60
2024/02/20 11:48:07;;;;;;;7.60;3.10;;;16.30;1.00;;;;;;2612513;54;20504;-58
2024/02/20 11:50:35;;;;;;;6.40;3.23;;;16.30;1.00;;;;;;2611688;54;20429;-60
2024/02/20 11:53:06;;;;;;;3.43;2.73;;;16.30;1.00;;;;;;2612424;54;20941;-60
2024/02/20 11:55:33;;;;;;;4.00;3.60;;;16.30;1.00;;;;;;2612944;39;20863;-61
2024/02/20 11:58:04;;;;;;;3.27;2.97;;;16.30;1.00;;;;;;2612102;54;20948;-60
2024/02/20 12:00:32;;;;;;;3.60;3.30;;;16.30;1.00;;;;;;2612038;54;20468;-60
2024/02/20 12:03:00;;;;;;;3.43;3.13;;;16.30;1.00;;;;;;2612561;54;20419;-61
2024/02/20 12:05:40;;;;;;;4.73;3.40;;;16.30;1.00;;;;;;2612231;54;21064;-61
2024/02/20 12:08:16;;;;;;;6.20;3.30;;;16.30;1.00;;;;;;2612450;54;20426;-61
2024/02/20 12:10:45;;;;;;;5.70;3.50;;;16.30;1.00;;;;;;2612442;39;20956;-60
2024/02/20 12:13:15;;;;;;;7.10;3.70;;;16.30;1.00;;;;;;2612053;54;20436;-61
2024/02/20 12:15:43;;;;;;;5.23;3.27;;;16.30;1.00;;;;;;2613014;39;21263;-60
2024/02/20 12:18:10;;;;;;;4.20;3.00;;;16.30;1.00;;;;;;2612402;47;20415;-61
2024/02/20 12:20:36;;;;;;;4.10;3.03;;;16.30;1.00;;;;;;2612315;39;20609;-61
2024/02/20 12:23:01;;;;;;;3.53;2.87;;;16.30;1.00;;;;;;2612397;54;20453;-61
2024/02/20 12:25:27;;;;;;;4.60;3.40;;;16.30;1.00;;;;;;2612542;47;20496;-64
2024/02/20 12:27:53;;;;;;;3.80;3.30;;;16.40;1.00;;;;;;2612653;54;20154;-63
2024/02/20 12:30:20;;;;;;;4.53;3.10;;;16.30;1.00;;;;;;2612573;54;20266;-64
2024/02/20 12:32:45;;;;;;;5.03;3.00;;;16.30;1.00;;;;;;2612046;47;20442;-65
2024/02/20 12:35:12;;;;;;;4.17;3.77;;;16.40;1.00;;;;;;2611517;54;20403;-65
2024/02/20 12:37:39;;;;;;;4.57;3.43;;;16.30;1.00;;;;;;2612081;39;20546;-64
2024/02/20 12:40:08;;;;;;;4.57;4.00;;;16.40;1.00;;;;;;2613322;39;20897;-65
2024/02/20 12:42:36;;;;;;;4.20;3.37;;;16.30;1.00;;;;;;2612025;54;20412;-64
2024/02/20 12:45:03;;;;;;;4.80;4.40;;;16.40;1.00;;;;;;2612028;54;20396;-64
2024/02/20 12:47:28;;;;;;;5.23;3.83;;;16.40;1.00;;;;;;2611877;54;21126;-64
2024/02/20 12:49:54;;;;;;;6.10;3.10;;;16.40;1.00;;;;;;2611615;54;20486;-65
2024/02/20 12:52:20;;;;;;;8.13;3.97;;;16.40;1.00;;;;;;2612474;54;20166;-64
2024/02/20 12:54:45;;;;;;;5.33;3.70;;;16.40;1.00;;;;;;2611316;47;20199;-64